Time;durP1;ratioP1;P1;durP2;ratioP2;P2;SDS_P1;SDS_P2;PMS_P1;PMS_P2;Temp;Humidity;BMP_temperature;BMP_pressure;BME280_temperature;BME280_humidity;BME280_pressure;Samples;Min_cycle;Max_cycle;Signal;HPM_P1;HPM_P2
2021/09/13 00:00:45;;;;;;;1.15;0.80;;;25.50;51.50;;;;;;5046784;28;20040;-54
2021/09/13 00:03:11;;;;;;;0.70;0.70;;;25.50;51.50;;;;;;5035774;28;20104;-52
2021/09/13 00:05:37;;;;;;;1.10;0.80;;;25.40;51.40;;;;;;5028996;28;20104;-56
2021/09/13 00:08:03;;;;;;;0.98;0.70;;;25.50;51.50;;;;;;5055773;28;20100;-53
2021/09/13 00:10:28;;;;;;;0.73;0.73;;;25.50;51.50;;;;;;5050092;28;20032;-52
2021/09/13 00:12:54;;;;;;;0.90;0.77;;;25.40;51.40;;;;;;5035002;28;20029;-59
2021/09/13 00:15:20;;;;;;;0.88;0.85;;;25.50;51.50;;;;;;5045412;28;20075;-58
2021/09/13 00:17:46;;;;;;;1.35;0.85;;;25.40;51.50;;;;;;5053674;28;20029;-57
2021/09/13 00:20:11;;;;;;;0.90;0.80;;;25.40;51.50;;;;;;5054026;28;20338;-54
2021/09/13 00:22:37;;;;;;;1.00;0.80;;;25.40;51.50;;;;;;5050004;28;20505;-60
2021/09/13 00:25:03;;;;;;;0.95;0.80;;;25.40;51.50;;;;;;5073147;28;20526;-50
2021/09/13 00:27:29;;;;;;;0.70;0.70;;;25.40;51.50;;;;;;5045848;28;20370;-54
2021/09/13 00:29:55;;;;;;;1.00;0.80;;;25.40;51.50;;;;;;5046060;28;20029;-52
2021/09/13 00:32:20;;;;;;;1.40;0.80;;;25.40;51.50;;;;;;5049979;28;20041;-58
2021/09/13 00:34:46;;;;;;;0.80;0.73;;;25.40;51.50;;;;;;5035701;28;20030;-54
2021/09/13 00:37:12;;;;;;;0.88;0.80;;;25.40;51.50;;;;;;5057103;28;20060;-57
2021/09/13 00:39:37;;;;;;;1.00;0.70;;;25.40;51.50;;;;;;5036718;28;20108;-58
2021/09/13 00:42:04;;;;;;;1.38;0.80;;;25.40;51.50;;;;;;5049945;28;20028;-58
2021/09/13 00:44:30;;;;;;;1.17;0.90;;;25.40;51.50;;;;;;5041254;28;20128;-54
2021/09/13 00:46:56;;;;;;;1.25;0.90;;;25.40;51.50;;;;;;5053341;28;20108;-60
2021/09/13 00:49:22;;;;;;;0.98;0.80;;;25.40;51.50;;;;;;5040903;28;20033;-56
2021/09/13 00:51:49;;;;;;;1.10;0.93;;;25.40;51.50;;;;;;5037590;28;20025;-60
2021/09/13 00:54:15;;;;;;;1.10;0.77;;;25.40;51.50;;;;;;5037971;28;20037;-56
2021/09/13 00:56:42;;;;;;;1.30;0.80;;;25.40;51.60;;;;;;5033432;28;20079;-57
2021/09/13 00:59:09;;;;;;;1.02;0.70;;;25.40;51.60;;;;;;5045794;28;20535;-50
2021/09/13 01:01:35;;;;;;;1.20;0.90;;;25.40;51.50;;;;;;5054080;28;20061;-58
2021/09/13 01:04:00;;;;;;;1.27;0.80;;;25.40;51.60;;;;;;5055672;28;20020;-59
2021/09/13 01:06:26;;;;;;;1.05;0.90;;;25.40;51.60;;;;;;5053437;28;20464;-59
2021/09/13 01:08:53;;;;;;;1.20;0.90;;;25.40;51.60;;;;;;5052464;28;20030;-56
2021/09/13 01:11:19;;;;;;;0.73;0.73;;;25.30;51.50;;;;;;5053606;28;20468;-51
2021/09/13 01:13:46;;;;;;;0.93;0.75;;;25.30;51.50;;;;;;5046632;28;20052;-58
2021/09/13 01:16:11;;;;;;;1.92;0.93;;;25.30;51.50;;;;;;5044016;28;20063;-53
2021/09/13 01:18:37;;;;;;;1.48;0.80;;;25.30;51.60;;;;;;5030035;28;20494;-51
2021/09/13 01:21:03;;;;;;;1.45;1.10;;;25.30;51.60;;;;;;5030593;28;20535;-59
2021/09/13 01:23:31;;;;;;;0.90;0.75;;;25.30;51.50;;;;;;5044234;28;20469;-58
2021/09/13 01:25:57;;;;;;;1.20;0.85;;;25.30;51.60;;;;;;5044166;28;20136;-51
2021/09/13 01:28:23;;;;;;;1.00;0.80;;;25.30;51.50;;;;;;5029456;28;20033;-53
2021/09/13 01:30:49;;;;;;;1.40;0.77;;;25.30;51.50;;;;;;5042944;28;20128;-60
2021/09/13 01:33:15;;;;;;;1.02;0.70;;;25.20;51.50;;;;;;5043036;28;20095;-56
2021/09/13 01:35:41;;;;;;;0.90;0.80;;;25.30;51.60;;;;;;5031396;28;20037;-58
2021/09/13 01:38:06;;;;;;;0.77;0.77;;;25.30;51.60;;;;;;5036025;28;20422;-59
2021/09/13 01:40:32;;;;;;;0.90;0.73;;;25.20;51.50;;;;;;5050380;28;20329;-56
2021/09/13 01:42:59;;;;;;;0.80;0.70;;;25.30;51.60;;;;;;5048232;28;20049;-60
2021/09/13 01:45:25;;;;;;;0.80;0.77;;;25.20;51.50;;;;;;5050278;28;20618;-57
2021/09/13 01:47:51;;;;;;;0.68;0.68;;;25.30;51.60;;;;;;5035116;28;20025;-56
2021/09/13 01:50:17;;;;;;;1.00;0.77;;;25.20;51.50;;;;;;5031843;28;20041;-59
2021/09/13 01:52:43;;;;;;;0.70;0.70;;;25.30;51.60;;;;;;5031612;28;20407;-54
2021/09/13 01:55:09;;;;;;;0.85;0.80;;;25.20;51.50;;;;;;5037653;28;20074;-55
2021/09/13 01:57:34;;;;;;;0.73;0.70;;;25.20;51.60;;;;;;5041614;28;20033;-52
2021/09/13 02:00:00;;;;;;;0.85;0.70;;;25.20;51.60;;;;;;5030562;28;20044;-51
2021/09/13 02:02:26;;;;;;;0.80;0.80;;;25.20;51.60;;;;;;5036665;28;20124;-58
2021/09/13 02:04:51;;;;;;;0.75;0.70;;;25.20;51.80;;;;;;5049593;28;20040;-59
2021/09/13 02:07:18;;;;;;;0.80;0.77;;;25.20;51.60;;;;;;5041905;28;20029;-58
2021/09/13 02:09:44;;;;;;;0.70;0.70;;;25.20;51.60;;;;;;5039641;28;20029;-49
2021/09/13 02:12:10;;;;;;;0.60;0.60;;;25.10;51.50;;;;;;5045317;28;20033;-54
2021/09/13 02:14:36;;;;;;;0.82;0.70;;;25.10;51.60;;;;;;5047881;28;20071;-52
2021/09/13 02:17:01;;;;;;;0.70;0.70;;;25.20;51.60;;;;;;5029802;28;20083;-57
2021/09/13 02:19:27;;;;;;;0.77;0.70;;;25.20;51.60;;;;;;5039701;28;20037;-59
2021/09/13 02:21:53;;;;;;;0.70;0.70;;;25.20;51.60;;;;;;5042750;28;20029;-53
2021/09/13 02:24:18;;;;;;;0.70;0.70;;;25.10;51.60;;;;;;5048620;28;20150;-60
2021/09/13 02:26:44;;;;;;;0.85;0.73;;;25.10;51.60;;;;;;5041970;28;20033;-57
2021/09/13 02:29:09;;;;;;;0.80;0.80;;;25.10;51.60;;;;;;5041883;28;20076;-53
2021/09/13 02:31:35;;;;;;;0.85;0.80;;;25.10;51.60;;;;;;5048264;28;20478;-55
2021/09/13 02:34:01;;;;;;;1.02;0.70;;;25.10;51.60;;;;;;5045236;28;20021;-60
2021/09/13 02:36:26;;;;;;;1.08;0.70;;;25.10;51.60;;;;;;5053190;28;20029;-60
2021/09/13 02:38:52;;;;;;;0.75;0.73;;;25.10;51.60;;;;;;5043620;28;20036;-56
2021/09/13 02:41:17;;;;;;;0.70;0.70;;;25.10;51.60;;;;;;5049006;28;20032;-56
2021/09/13 02:43:43;;;;;;;0.98;0.70;;;25.10;51.60;;;;;;5042642;28;20067;-52
2021/09/13 02:46:09;;;;;;;0.90;0.80;;;25.10;51.60;;;;;;5038673;28;20025;-50
2021/09/13 02:48:34;;;;;;;0.60;0.60;;;25.10;51.60;;;;;;5046181;28;20059;-53
2021/09/13 02:51:00;;;;;;;0.55;0.55;;;25.10;51.70;;;;;;5041648;28;20033;-57
2021/09/13 02:53:25;;;;;;;0.85;0.70;;;25.10;51.60;;;;;;5028263;28;20108;-49
2021/09/13 02:55:51;;;;;;;0.63;0.60;;;25.10;51.60;;;;;;5040081;28;20029;-59
2021/09/13 02:58:17;;;;;;;0.75;0.63;;;25.10;51.60;;;;;;5034272;28;20627;-51
2021/09/13 03:00:42;;;;;;;0.80;0.75;;;25.10;51.70;;;;;;5042101;28;20132;-50
2021/09/13 03:03:08;;;;;;;0.63;0.60;;;25.10;51.70;;;;;;5043973;28;20112;-57
2021/09/13 03:05:33;;;;;;;0.65;0.60;;;25.00;51.60;;;;;;5028901;28;20040;-49
2021/09/13 03:07:59;;;;;;;0.93;0.70;;;25.00;51.60;;;;;;5037315;28;20536;-54
2021/09/13 03:10:25;;;;;;;0.95;0.77;;;25.00;51.70;;;;;;5044329;28;20036;-59
2021/09/13 03:12:50;;;;;;;0.90;0.80;;;25.00;51.60;;;;;;5046902;28;20056;-59
2021/09/13 03:15:16;;;;;;;0.70;0.60;;;25.00;51.60;;;;;;5038808;28;20029;-59
2021/09/13 03:17:43;;;;;;;0.65;0.63;;;25.00;51.60;;;;;;5038358;28;20041;-60
2021/09/13 03:20:09;;;;;;;0.85;0.70;;;25.00;51.60;;;;;;5035125;28;20060;-52
2021/09/13 03:22:35;;;;;;;0.60;0.60;;;25.00;51.60;;;;;;5046707;28;20120;-58
2021/09/13 03:25:01;;;;;;;0.80;0.63;;;25.00;51.60;;;;;;5034131;28;20136;-55
2021/09/13 03:27:26;;;;;;;0.73;0.70;;;25.00;51.60;;;;;;5061142;28;20032;-51
2021/09/13 03:29:52;;;;;;;0.60;0.60;;;25.00;51.60;;;;;;5058020;28;20398;-60
2021/09/13 03:32:17;;;;;;;1.30;0.73;;;25.00;51.60;;;;;;5032672;28;20049;-59
2021/09/13 03:34:43;;;;;;;0.68;0.60;;;25.00;51.60;;;;;;5039572;28;20053;-60
2021/09/13 03:37:09;;;;;;;0.63;0.60;;;25.00;51.60;;;;;;5046583;28;20071;-50
2021/09/13 03:39:36;;;;;;;0.75;0.70;;;25.00;51.60;;;;;;5036076;28;20037;-55
2021/09/13 03:42:02;;;;;;;0.65;0.65;;;25.00;51.60;;;;;;5047812;28;20171;-59
2021/09/13 03:44:28;;;;;;;1.02;0.80;;;24.90;51.60;;;;;;5046846;28;20521;-58
2021/09/13 03:46:55;;;;;;;1.02;0.70;;;24.90;51.60;;;;;;5047713;28;20036;-53
2021/09/13 03:49:21;;;;;;;0.90;0.80;;;24.90;51.60;;;;;;5039967;28;20028;-57
2021/09/13 03:51:46;;;;;;;1.02;0.70;;;24.90;51.60;;;;;;5042663;28;20040;-58
2021/09/13 03:54:12;;;;;;;0.70;0.70;;;24.90;51.60;;;;;;5033418;28;20029;-50
2021/09/13 03:56:38;;;;;;;0.82;0.70;;;24.90;51.60;;;;;;5028550;28;20100;-51
2021/09/13 03:59:03;;;;;;;0.80;0.70;;;24.90;51.60;;;;;;5027508;28;20026;-55
2021/09/13 04:01:29;;;;;;;0.77;0.70;;;24.90;51.60;;;;;;5042682;28;20102;-54
2021/09/13 04:03:58;;;;;;;0.70;0.70;;;24.90;51.60;;;;;;5045146;28;20078;-58
2021/09/13 04:06:37;;;;;;;0.70;0.60;;;24.90;51.60;;;;;;5047244;28;20323;-54
2021/09/13 04:11:54;;;;;;;0.65;0.65;;;24.90;51.60;;;;;;5026239;28;20033;-53
2021/09/13 04:14:30;;;;;;;0.70;0.70;;;24.90;51.60;;;;;;5046866;28;20043;-58
2021/09/13 04:16:56;;;;;;;0.60;0.60;;;24.90;51.60;;;;;;5046535;28;20025;-60
2021/09/13 04:19:22;;;;;;;0.65;0.60;;;24.90;51.60;;;;;;5032825;28;20029;-56
2021/09/13 04:21:50;;;;;;;0.68;0.68;;;24.90;51.60;;;;;;5036510;28;20037;-48
2021/09/13 04:24:15;;;;;;;0.80;0.70;;;24.90;51.60;;;;;;5050744;28;20435;-57
2021/09/13 04:26:41;;;;;;;0.88;0.70;;;24.90;51.70;;;;;;5038309;28;20029;-55
2021/09/13 04:29:07;;;;;;;1.50;0.73;;;24.80;51.60;;;;;;5038956;28;20040;-55
2021/09/13 04:31:33;;;;;;;0.60;0.60;;;24.80;51.60;;;;;;5046081;28;20045;-59
2021/09/13 04:33:59;;;;;;;0.77;0.70;;;24.80;51.60;;;;;;5035128;28;20139;-56
2021/09/13 04:36:25;;;;;;;0.70;0.70;;;24.80;51.60;;;;;;5031815;28;20694;-58
2021/09/13 04:38:50;;;;;;;0.65;0.60;;;24.80;51.60;;;;;;5033470;28;20449;-52
2021/09/13 04:41:16;;;;;;;0.85;0.70;;;24.80;51.60;;;;;;5038247;28;20741;-59
2021/09/13 04:43:42;;;;;;;0.93;0.80;;;24.80;51.60;;;;;;5029006;28;20481;-48
2021/09/13 04:46:07;;;;;;;1.00;0.80;;;24.80;51.60;;;;;;5034630;28;20095;-58
2021/09/13 04:48:33;;;;;;;0.70;0.70;;;24.80;51.60;;;;;;5046183;28;20107;-59
2021/09/13 04:50:59;;;;;;;0.60;0.60;;;24.80;51.60;;;;;;5037187;28;20100;-58
2021/09/13 04:53:24;;;;;;;0.55;0.55;;;24.80;51.60;;;;;;5046818;28;20033;-57
2021/09/13 04:55:50;;;;;;;0.70;0.70;;;24.80;51.60;;;;;;5047565;28;20040;-54
2021/09/13 04:58:16;;;;;;;0.85;0.70;;;24.80;51.00;;;;;;5035666;28;20119;-52
2021/09/13 05:00:41;;;;;;;1.35;0.90;;;24.80;49.80;;;;;;5032446;28;20033;-58
2021/09/13 05:03:07;;;;;;;1.38;0.77;;;24.80;48.60;;;;;;5037733;28;20060;-59
2021/09/13 05:05:33;;;;;;;1.25;0.90;;;24.70;47.80;;;;;;5038240;28;20029;-59
2021/09/13 05:07:59;;;;;;;1.63;0.90;;;24.70;47.20;;;;;;5033942;28;20065;-58
2021/09/13 05:10:25;;;;;;;1.17;0.80;;;24.70;47.10;;;;;;5048604;28;20037;-57
2021/09/13 05:12:51;;;;;;;1.58;0.90;;;24.70;46.70;;;;;;5034722;28;20069;-58
2021/09/13 05:15:16;;;;;;;1.50;0.82;;;24.70;46.60;;;;;;5042255;28;20029;-54
2021/09/13 05:17:42;;;;;;;1.63;1.00;;;24.70;46.30;;;;;;5049234;28;20044;-54
2021/09/13 05:20:09;;;;;;;2.70;1.00;;;24.60;46.10;;;;;;5043128;28;20048;-52
2021/09/13 05:22:35;;;;;;;1.80;0.80;;;24.60;46.10;;;;;;5052648;28;20043;-58
2021/09/13 05:25:00;;;;;;;1.95;0.90;;;24.60;46.00;;;;;;5039439;28;20025;-57
2021/09/13 05:27:26;;;;;;;1.42;0.80;;;24.60;45.90;;;;;;5041410;28;20045;-57
2021/09/13 05:29:51;;;;;;;1.30;0.90;;;24.50;45.90;;;;;;5045291;28;20087;-51
2021/09/13 05:32:17;;;;;;;1.90;1.00;;;24.60;45.80;;;;;;5041863;28;20041;-58
2021/09/13 05:34:43;;;;;;;2.08;1.15;;;24.50;45.70;;;;;;5041368;28;20025;-53
2021/09/13 05:37:09;;;;;;;2.33;1.10;;;24.50;45.70;;;;;;5037090;28;20143;-51
2021/09/13 05:39:35;;;;;;;2.15;1.30;;;24.50;45.60;;;;;;5041161;28;20480;-60
2021/09/13 05:42:01;;;;;;;1.83;1.00;;;24.50;45.70;;;;;;5040918;28;20462;-52
2021/09/13 05:44:26;;;;;;;1.88;1.25;;;24.50;45.50;;;;;;5044104;28;20021;-56
2021/09/13 05:46:52;;;;;;;1.75;1.20;;;24.50;45.90;;;;;;5042156;28;20444;-56
2021/09/13 05:49:18;;;;;;;2.58;1.20;;;24.50;46.10;;;;;;5039943;28;20024;-51
2021/09/13 05:51:50;;;;;;;2.83;1.20;;;24.60;46.00;;;;;;5037190;28;20025;-60
2021/09/13 05:54:21;;;;;;;2.30;1.08;;;24.70;45.90;;;;;;5040637;28;20434;-59
2021/09/13 05:56:49;;;;;;;1.58;1.00;;;24.70;45.90;;;;;;5047019;28;20033;-61
2021/09/13 05:59:16;;;;;;;3.13;1.20;;;24.80;46.00;;;;;;5039023;28;20481;-57
2021/09/13 06:01:41;;;;;;;2.70;1.20;;;24.90;46.00;;;;;;5037125;28;20037;-49
2021/09/13 06:04:07;;;;;;;2.08;1.10;;;24.90;46.00;;;;;;5034852;28;20033;-60
2021/09/13 06:06:32;;;;;;;4.63;1.35;;;25.00;46.10;;;;;;5040244;28;20044;-58
2021/09/13 06:08:58;;;;;;;2.78;1.10;;;25.10;46.00;;;;;;5036258;28;20130;-52
2021/09/13 06:11:27;;;;;;;2.10;1.10;;;25.10;46.20;;;;;;5036663;28;20029;-52
2021/09/13 06:13:53;;;;;;;2.72;1.20;;;25.20;46.30;;;;;;5046021;28;20471;-58
2021/09/13 06:16:19;;;;;;;3.22;1.00;;;25.20;46.20;;;;;;5042287;28;20041;-58
2021/09/13 06:18:45;;;;;;;3.17;1.02;;;25.30;46.30;;;;;;5046838;28;20497;-52
2021/09/13 06:21:11;;;;;;;2.08;1.08;;;25.30;46.40;;;;;;5035241;28;20105;-57
2021/09/13 06:23:36;;;;;;;1.42;0.90;;;25.30;46.50;;;;;;5049250;28;20084;-50
2021/09/13 06:26:02;;;;;;;1.52;1.00;;;25.30;46.60;;;;;;5039265;28;20025;-48
2021/09/13 06:28:28;;;;;;;2.50;1.17;;;25.30;46.80;;;;;;5036154;28;20082;-48
2021/09/13 06:30:54;;;;;;;1.60;0.90;;;25.30;46.80;;;;;;5041693;28;20041;-55
2021/09/13 06:33:20;;;;;;;1.63;0.85;;;25.30;46.90;;;;;;5041993;28;20044;-54
2021/09/13 06:35:46;;;;;;;1.90;1.00;;;25.30;46.90;;;;;;5038332;28;20025;-54
2021/09/13 06:38:12;;;;;;;1.88;1.15;;;25.30;46.90;;;;;;5032318;28;20032;-55
2021/09/13 06:40:37;;;;;;;2.47;1.10;;;25.40;47.00;;;;;;5043049;28;20047;-60
2021/09/13 06:43:03;;;;;;;2.30;1.10;;;25.40;47.10;;;;;;5036323;28;20094;-57
2021/09/13 06:45:30;;;;;;;3.35;1.10;;;25.40;47.10;;;;;;5044908;28;20171;-49
2021/09/13 06:47:55;;;;;;;3.47;1.10;;;25.40;47.20;;;;;;5035825;28;20022;-56
2021/09/13 06:50:30;;;;;;;2.08;1.23;;;25.40;47.20;;;;;;5031974;28;20098;-50
2021/09/13 06:52:56;;;;;;;1.88;0.80;;;25.40;47.10;;;;;;5040884;28;20516;-55
2021/09/13 06:55:22;;;;;;;1.77;0.90;;;25.40;47.30;;;;;;5039597;28;20040;-58
2021/09/13 06:57:49;;;;;;;1.67;0.90;;;25.50;47.30;;;;;;5033854;28;20095;-58
2021/09/13 07:00:16;;;;;;;2.67;1.08;;;25.50;47.30;;;;;;5031265;28;20028;-60
2021/09/13 07:02:44;;;;;;;2.25;1.00;;;25.50;47.30;;;;;;5039629;28;20384;-57
2021/09/13 07:05:10;;;;;;;1.83;1.02;;;25.50;47.20;;;;;;5031616;28;20067;-58
2021/09/13 07:07:37;;;;;;;3.60;1.10;;;25.60;47.30;;;;;;5040848;28;20025;-53
2021/09/13 07:10:08;;;;;;;1.55;0.95;;;25.60;47.30;;;;;;5038816;28;20111;-51
2021/09/13 07:12:35;;;;;;;1.75;1.00;;;25.60;47.40;;;;;;5031586;28;20111;-58
2021/09/13 07:15:01;;;;;;;1.98;1.15;;;25.60;47.30;;;;;;5045120;28;20016;-57
2021/09/13 07:17:27;;;;;;;1.67;0.90;;;25.60;47.40;;;;;;5044930;28;20044;-51
2021/09/13 07:19:52;;;;;;;1.50;0.95;;;25.60;47.40;;;;;;5047317;28;20060;-58
2021/09/13 07:22:19;;;;;;;2.40;1.00;;;25.70;47.50;;;;;;5032341;28;20025;-55
2021/09/13 07:24:46;;;;;;;2.78;1.05;;;25.70;47.50;;;;;;5047254;28;20063;-49
2021/09/13 07:27:11;;;;;;;2.22;1.02;;;25.70;47.50;;;;;;5039654;28;20770;-56
2021/09/13 07:29:38;;;;;;;2.03;1.00;;;25.70;47.50;;;;;;5045618;28;20065;-53
2021/09/13 07:32:04;;;;;;;1.98;1.08;;;25.70;47.50;;;;;;5043019;28;20044;-51
2021/09/13 07:34:30;;;;;;;2.33;1.10;;;25.70;47.50;;;;;;5043211;28;20064;-56
2021/09/13 07:36:56;;;;;;;1.80;1.00;;;25.70;47.50;;;;;;5035458;28;20071;-57
2021/09/13 07:39:23;;;;;;;1.88;1.00;;;25.80;47.60;;;;;;5046976;28;20592;-60
2021/09/13 07:41:49;;;;;;;1.60;0.95;;;25.80;47.60;;;;;;5044600;28;20514;-55
2021/09/13 07:44:14;;;;;;;2.10;1.05;;;25.80;47.60;;;;;;5039860;28;20034;-48
2021/09/13 07:46:40;;;;;;;2.10;1.00;;;25.80;47.60;;;;;;5039174;28;20064;-52
2021/09/13 07:49:05;;;;;;;1.73;0.90;;;25.80;47.70;;;;;;5037179;28;20446;-58
2021/09/13 07:51:31;;;;;;;1.40;1.00;;;25.80;47.60;;;;;;5042738;28;20079;-50
2021/09/13 07:53:57;;;;;;;2.33;1.35;;;25.90;47.70;;;;;;5038468;28;20029;-53
2021/09/13 07:56:22;;;;;;;2.10;1.10;;;25.90;47.70;;;;;;5045141;28;20036;-55
2021/09/13 07:58:48;;;;;;;1.30;1.00;;;25.90;47.80;;;;;;5043753;28;20457;-56
2021/09/13 08:01:14;;;;;;;2.05;1.13;;;25.90;47.70;;;;;;5039455;28;20046;-53
2021/09/13 08:03:39;;;;;;;1.52;1.00;;;25.90;47.70;;;;;;5039148;28;20034;-61
2021/09/13 08:06:06;;;;;;;1.38;0.90;;;25.90;47.70;;;;;;5046818;28;20029;-58
2021/09/13 08:08:33;;;;;;;2.03;1.20;;;25.90;47.70;;;;;;5039550;28;20130;-54
2021/09/13 08:10:58;;;;;;;2.60;0.93;;;26.00;47.80;;;;;;5034161;28;20060;-52
2021/09/13 08:13:24;;;;;;;1.58;1.00;;;26.00;47.90;;;;;;5037339;28;20097;-51
2021/09/13 08:15:49;;;;;;;2.05;1.00;;;26.00;47.90;;;;;;5042535;28;20499;-55
2021/09/13 08:18:15;;;;;;;1.33;0.90;;;26.00;47.90;;;;;;5033276;28;20076;-58
2021/09/13 08:20:41;;;;;;;1.08;0.90;;;26.00;47.90;;;;;;5039034;28;20454;-58
2021/09/13 08:23:06;;;;;;;1.20;0.90;;;26.00;47.90;;;;;;5038844;28;20050;-51
2021/09/13 08:25:32;;;;;;;2.10;1.10;;;26.00;47.90;;;;;;5039075;28;20096;-49
2021/09/13 08:27:58;;;;;;;1.00;0.90;;;26.00;47.80;;;;;;5036566;28;20128;-60
2021/09/13 08:30:23;;;;;;;1.10;0.90;;;26.10;47.90;;;;;;5045579;28;20029;-58
2021/09/13 08:32:49;;;;;;;1.67;1.00;;;26.10;47.90;;;;;;5037351;28;20076;-53
2021/09/13 08:35:14;;;;;;;2.00;0.98;;;26.10;47.90;;;;;;5043967;28;20133;-58
2021/09/13 08:37:40;;;;;;;3.20;1.02;;;26.10;47.90;;;;;;5044618;28;20155;-56
2021/09/13 08:40:06;;;;;;;1.25;0.80;;;26.10;47.90;;;;;;5032836;28;20064;-54
2021/09/13 08:42:35;;;;;;;1.00;0.80;;;26.10;47.90;;;;;;5043688;28;20037;-57
2021/09/13 08:45:01;;;;;;;1.50;0.90;;;26.10;47.90;;;;;;5044845;28;20082;-56
2021/09/13 08:47:34;;;;;;;1.75;1.10;;;26.20;48.00;;;;;;5047298;28;20112;-52
2021/09/13 08:51:02;;;;;;;2.90;1.10;;;26.20;48.00;;;;;;5044254;28;20026;-52
2021/09/13 08:52:49;;;;;;;1.33;0.98;;;26.20;48.00;;;;;;5036078;28;20494;-58
2021/09/13 08:55:15;;;;;;;1.10;0.82;;;26.20;48.00;;;;;;5041702;28;20040;-56
2021/09/13 08:57:41;;;;;;;2.47;1.00;;;26.20;48.00;;;;;;5048193;28;20103;-55
2021/09/13 09:00:08;;;;;;;1.45;1.00;;;26.20;48.00;;;;;;5046612;28;20029;-54
2021/09/13 09:02:34;;;;;;;1.38;0.90;;;26.20;48.60;;;;;;5032751;28;20155;-56
2021/09/13 09:05:02;;;;;;;1.73;0.90;;;26.20;48.00;;;;;;5042943;28;20079;-60
2021/09/13 09:07:45;;;;;;;1.88;0.90;;;26.20;48.10;;;;;;5050166;28;20438;-48
2021/09/13 09:10:18;;;;;;;2.38;1.00;;;26.20;48.10;;;;;;5041285;28;20036;-58
2021/09/13 09:12:58;;;;;;;1.42;0.88;;;26.20;48.10;;;;;;5044615;28;20037;-61
2021/09/13 09:15:24;;;;;;;1.67;0.80;;;26.20;48.10;;;;;;5047073;28;20029;-59
2021/09/13 09:17:56;;;;;;;1.52;0.90;;;26.20;48.10;;;;;;5049340;28;20032;-60
2021/09/13 09:20:22;;;;;;;2.08;0.90;;;26.20;48.20;;;;;;5048462;28;20103;-57
2021/09/13 09:22:58;;;;;;;1.50;1.00;;;26.20;48.20;;;;;;5047538;28;20051;-58
2021/09/13 09:25:26;;;;;;;1.40;0.90;;;26.30;48.20;;;;;;5049437;28;20146;-59
2021/09/13 09:27:58;;;;;;;2.35;0.90;;;26.30;48.20;;;;;;5048487;28;20021;-51
2021/09/13 09:30:34;;;;;;;1.00;0.80;;;26.30;48.20;;;;;;5045062;28;20170;-58
2021/09/13 09:33:03;;;;;;;1.50;0.88;;;26.30;48.20;;;;;;5048485;28;20056;-58
2021/09/13 09:35:38;;;;;;;1.20;0.90;;;26.30;48.20;;;;;;5037222;28;20025;-50
2021/09/13 09:38:04;;;;;;;1.45;0.90;;;26.30;48.20;;;;;;5040119;28;20083;-58
2021/09/13 09:40:30;;;;;;;1.70;0.90;;;26.30;48.10;;;;;;5031448;28;20025;-54
2021/09/13 09:42:55;;;;;;;1.13;0.80;;;26.40;48.20;;;;;;5041444;28;20056;-57
2021/09/13 09:45:21;;;;;;;1.05;0.80;;;26.30;48.10;;;;;;5047983;28;20040;-55
2021/09/13 09:48:07;;;;;;;2.08;0.80;;;26.30;48.20;;;;;;5043779;28;20029;-51
2021/09/13 09:50:34;;;;;;;3.47;1.00;;;26.40;48.20;;;;;;5036223;28;20094;-58
2021/09/13 09:53:15;;;;;;;2.60;0.90;;;26.40;48.20;;;;;;5041726;28;20025;-58
2021/09/13 09:55:41;;;;;;;2.00;1.00;;;26.40;48.20;;;;;;5034256;28;20041;-55
2021/09/13 09:58:13;;;;;;;1.58;0.90;;;26.40;48.20;;;;;;5044756;28;20052;-57
2021/09/13 10:00:40;;;;;;;1.55;0.90;;;26.40;48.20;;;;;;5044944;28;20119;-58
2021/09/13 10:03:06;;;;;;;1.52;0.90;;;26.40;48.20;;;;;;5043815;28;20063;-60
2021/09/13 10:05:33;;;;;;;1.58;0.90;;;26.40;48.20;;;;;;5040899;28;20029;-59
2021/09/13 10:07:59;;;;;;;1.00;0.90;;;26.40;48.20;;;;;;5047744;28;20047;-48
2021/09/13 10:10:29;;;;;;;2.33;1.10;;;26.40;48.20;;;;;;5043464;28;20033;-52
2021/09/13 10:12:56;;;;;;;1.05;0.85;;;26.40;48.30;;;;;;5037876;28;20491;-55
2021/09/13 10:15:21;;;;;;;1.45;1.00;;;26.40;48.30;;;;;;5037966;28;20189;-60
2021/09/13 10:17:48;;;;;;;1.20;1.00;;;26.40;48.30;;;;;;5046913;28;20029;-58
2021/09/13 10:20:14;;;;;;;1.20;0.82;;;26.40;48.30;;;;;;5042981;28;20473;-57
2021/09/13 10:22:44;;;;;;;0.90;0.80;;;26.40;48.30;;;;;;5039135;28;20068;-59
2021/09/13 10:25:11;;;;;;;2.33;0.90;;;26.40;48.30;;;;;;5042521;28;20074;-56
2021/09/13 10:27:46;;;;;;;2.25;1.15;;;26.40;48.30;;;;;;5043127;28;20099;-55
2021/09/13 10:30:20;;;;;;;1.63;0.90;;;26.40;48.40;;;;;;5035165;28;20034;-58
2021/09/13 10:32:51;;;;;;;1.35;0.90;;;26.40;48.40;;;;;;5033632;28;20024;-58
2021/09/13 10:35:20;;;;;;;1.77;0.98;;;26.40;48.30;;;;;;5041678;28;20141;-58
2021/09/13 10:37:54;;;;;;;1.30;0.90;;;26.40;48.30;;;;;;5038669;28;20132;-53
2021/09/13 10:40:25;;;;;;;1.27;0.90;;;26.30;48.30;;;;;;5038241;28;20061;-54
2021/09/13 10:43:18;;;;;;;2.33;1.00;;;26.30;48.30;;;;;;5041601;28;20943;-60
2021/09/13 10:45:44;;;;;;;1.40;0.80;;;26.40;48.50;;;;;;5053333;28;20448;-55
2021/09/13 10:48:18;;;;;;;1.30;0.90;;;26.30;48.40;;;;;;5040410;28;20025;-54
2021/09/13 10:50:49;;;;;;;1.35;0.80;;;26.30;48.40;;;;;;5051270;28;20040;-55
2021/09/13 10:53:18;;;;;;;1.40;0.90;;;26.40;48.50;;;;;;5048623;28;20597;-58
2021/09/13 10:55:44;;;;;;;1.83;0.98;;;26.30;48.40;;;;;;5034524;28;20034;-46
2021/09/13 10:58:18;;;;;;;1.45;0.90;;;26.30;48.40;;;;;;5039909;28;20055;-58
2021/09/13 11:00:44;;;;;;;1.30;0.90;;;26.40;48.50;;;;;;5045096;28;20031;-58
2021/09/13 11:03:37;;;;;;;1.45;0.90;;;26.40;48.50;;;;;;5040435;28;20610;-55
2021/09/13 11:08:41;;;;;;;1.15;0.77;;;26.40;48.50;;;;;;5043222;28;20106;-58
2021/09/13 11:11:12;;;;;;;1.08;0.80;;;26.40;48.50;;;;;;5042276;28;20041;-53
2021/09/13 11:13:38;;;;;;;0.95;0.75;;;26.40;48.50;;;;;;5033910;28;20060;-55
2021/09/13 11:16:04;;;;;;;1.00;0.80;;;26.40;48.60;;;;;;5042488;28;20043;-52
2021/09/13 11:18:44;;;;;;;1.30;0.90;;;26.40;48.60;;;;;;5036336;28;20116;-55
2021/09/13 11:21:20;;;;;;;1.35;0.90;;;26.40;48.60;;;;;;5035730;28;20394;-58
2021/09/13 11:23:56;;;;;;;1.10;0.75;;;26.40;48.60;;;;;;5036724;28;20642;-56
2021/09/13 11:26:36;;;;;;;1.05;0.88;;;26.50;48.60;;;;;;5040809;28;20045;-59
2021/09/13 11:29:07;;;;;;;1.52;0.90;;;26.50;48.70;;;;;;5047201;28;20481;-52
2021/09/13 11:31:50;;;;;;;1.80;0.88;;;26.50;48.70;;;;;;5041446;28;20042;-51
2021/09/13 11:34:16;;;;;;;1.17;0.80;;;26.50;48.70;;;;;;5039239;28;20037;-52
2021/09/13 11:36:57;;;;;;;1.20;0.80;;;26.50;48.70;;;;;;5033516;28;20029;-58
2021/09/13 11:39:25;;;;;;;2.00;0.93;;;26.50;48.70;;;;;;5042132;28;20937;-51
2021/09/13 11:42:22;;;;;;;1.23;0.90;;;26.50;48.70;;;;;;5051100;28;20316;-61
2021/09/13 11:44:50;;;;;;;0.95;0.80;;;26.50;48.70;;;;;;5038211;28;20024;-56
2021/09/13 11:47:22;;;;;;;1.20;1.00;;;26.60;48.80;;;;;;5042136;28;20211;-57
2021/09/13 11:49:52;;;;;;;1.02;0.90;;;26.50;48.70;;;;;;5034005;28;20114;-60
2021/09/13 11:52:28;;;;;;;1.00;0.80;;;26.60;48.80;;;;;;5046961;28;20031;-56
2021/09/13 11:55:00;;;;;;;1.40;0.90;;;26.60;48.80;;;;;;5044032;28;20052;-51
2021/09/13 11:57:33;;;;;;;1.35;0.80;;;26.60;48.80;;;;;;5045761;28;20068;-56
2021/09/13 12:00:06;;;;;;;1.05;0.90;;;26.60;48.80;;;;;;5041868;28;20063;-60
2021/09/13 12:02:31;;;;;;;1.52;0.80;;;26.60;48.80;;;;;;5011993;28;20123;-58
2021/09/13 12:05:04;;;;;;;1.23;0.90;;;26.60;48.70;;;;;;5024433;28;20445;-51
2021/09/13 12:07:29;;;;;;;2.08;1.10;;;26.70;48.80;;;;;;5019507;28;20024;-57
2021/09/13 12:09:56;;;;;;;1.20;0.90;;;26.70;48.80;;;;;;5019413;28;20462;-58
2021/09/13 12:12:24;;;;;;;1.17;0.80;;;26.70;48.80;;;;;;5021749;28;20421;-59
2021/09/13 12:14:53;;;;;;;1.58;0.88;;;26.70;48.80;;;;;;5026810;28;20366;-58
2021/09/13 12:17:21;;;;;;;1.60;1.00;;;26.70;48.80;;;;;;5022377;28;20032;-54
2021/09/13 12:20:36;;;;;;;1.00;0.80;;;26.70;48.90;;;;;;5040655;28;20098;-59
2021/09/13 12:23:32;;;;;;;1.20;0.77;;;26.70;48.80;;;;;;5006817;28;20045;-60
2021/09/13 12:26:03;;;;;;;1.45;0.90;;;26.70;48.80;;;;;;5011605;28;20029;-51
2021/09/13 12:28:34;;;;;;;1.30;0.80;;;26.80;48.90;;;;;;5018207;28;20056;-57
2021/09/13 12:31:05;;;;;;;0.93;0.80;;;26.80;48.90;;;;;;5020045;28;20044;-59
2021/09/13 12:33:46;;;;;;;1.25;0.80;;;26.80;48.90;;;;;;5021059;28;20366;-58
2021/09/13 12:36:16;;;;;;;1.90;0.90;;;26.80;49.10;;;;;;5030691;28;20033;-53
2021/09/13 12:38:47;;;;;;;1.85;0.98;;;26.80;49.10;;;;;;5019278;28;20051;-51
2021/09/13 12:41:13;;;;;;;2.05;1.00;;;26.80;49.00;;;;;;5018850;28;20080;-49
2021/09/13 12:43:45;;;;;;;2.40;1.10;;;26.90;49.00;;;;;;5020973;28;20741;-54
2021/09/13 12:46:17;;;;;;;1.40;0.90;;;26.90;48.90;;;;;;5021147;28;20071;-60
2021/09/13 12:48:46;;;;;;;1.55;0.70;;;26.90;48.90;;;;;;5020557;28;20358;-60
2021/09/13 12:51:13;;;;;;;1.42;0.98;;;26.90;48.90;;;;;;5016307;28;20033;-54
2021/09/13 12:53:39;;;;;;;1.42;0.98;;;26.90;48.90;;;;;;5019722;28;20061;-60
2021/09/13 12:56:16;;;;;;;1.17;0.80;;;26.90;48.80;;;;;;5017215;28;20037;-51